createdAt,value
2023-02-22T00:01:51.151Z,95672.56
2023-02-22T00:04:39.742Z,95667.59
2023-02-22T00:07:26.077Z,95677.78
2023-02-22T00:10:14.604Z,95677.78
2023-02-22T00:13:00.647Z,95676.66
2023-02-22T00:15:46.443Z,95662.81
2023-02-22T00:18:32.238Z,95660.53
2023-02-22T00:21:18.515Z,95669.53
2023-02-22T00:24:22.977Z,95667.38
2023-02-22T00:27:09.159Z,95664.41
2023-02-22T00:29:56.630Z,95632.63
2023-02-22T00:32:43.204Z,95659.72
2023-02-22T00:35:30.620Z,95657.41
2023-02-22T00:38:18.596Z,95658.44
2023-02-22T00:41:04.809Z,95673.06
2023-02-22T00:43:50.888Z,95653.44
2023-02-22T00:46:38.609Z,95650.25
2023-02-22T00:49:26.147Z,95661.72
2023-02-22T00:52:12.484Z,95657.59
2023-02-22T00:55:00.065Z,95664.41
2023-02-22T00:57:45.929Z,95661.25
2023-02-22T01:00:33.519Z,95655.44
2023-02-22T01:03:20.974Z,95631.78
2023-02-22T01:06:07.765Z,95639.78
2023-02-22T01:08:53.935Z,95649.41
2023-02-22T01:11:41.558Z,95636.13
2023-02-22T01:14:28.147Z,95639.63
2023-02-22T01:17:14.337Z,95645.28
2023-02-22T01:20:00.004Z,95636.78
2023-02-22T01:22:48.491Z,95642.97
2023-02-22T01:25:35.431Z,95633.97
2023-02-22T01:28:22.597Z,95635.31
2023-02-22T01:31:09.167Z,95649.97
2023-02-22T01:33:55.129Z,95637.31
2023-02-22T01:36:41.324Z,95649.63
2023-02-22T01:39:28.637Z,95637.31
2023-02-22T01:42:14.496Z,95631.34
2023-02-22T01:45:32.773Z,95645.81
2023-02-22T01:48:25.013Z,95643.31
2023-02-22T01:51:20.854Z,95640.97
2023-02-22T01:54:11.045Z,95631.00
2023-02-22T01:57:06.144Z,95627.66
2023-02-22T01:59:56.862Z,95633.00
2023-02-22T02:02:49.476Z,95633.66
2023-02-22T02:05:39.834Z,95621.69
2023-02-22T02:08:36.150Z,95627.50
2023-02-22T02:11:25.596Z,95634.47
2023-02-22T02:14:12.793Z,95634.97
2023-02-22T02:17:01.567Z,95632.66
2023-02-22T02:20:01.289Z,95631.16
2023-02-22T02:23:06.339Z,95631.34
2023-02-22T02:26:23.046Z,95628.34
2023-02-22T02:29:18.236Z,95614.00
2023-02-22T02:32:10.344Z,95611.00
2023-02-22T02:34:57.725Z,95615.69
2023-02-22T02:38:15.001Z,95622.66
2023-02-22T02:41:32.374Z,95624.81
2023-02-22T02:44:27.642Z,95624.97
2023-02-22T02:47:24.025Z,95626.28
2023-02-22T02:50:47.179Z,95626.13
2023-02-22T02:53:36.513Z,95631.09
2023-02-22T02:56:23.589Z,95623.97
2023-02-22T02:59:27.641Z,95636.25
2023-02-22T03:02:25.761Z,95629.94
2023-02-22T03:05:11.678Z,95631.75
2023-02-22T03:08:34.533Z,95632.75
2023-02-22T03:11:23.879Z,95631.25
2023-02-22T03:14:27.628Z,95631.22
2023-02-22T03:17:41.468Z,95622.69
2023-02-22T03:20:32.443Z,95646.16
2023-02-22T03:23:43.696Z,95644.16
2023-02-22T03:26:36.418Z,95633.84
2023-02-22T03:29:25.135Z,95636.66
2023-02-22T03:32:16.817Z,95646.31
2023-02-22T03:35:13.115Z,95635.28
2023-02-22T03:38:02.991Z,95649.44
2023-02-22T03:40:52.259Z,95649.97
2023-02-22T03:43:42.017Z,95651.78
2023-02-22T03:46:33.060Z,95648.78
2023-02-22T03:49:40.614Z,95654.09
2023-02-22T03:52:26.549Z,95660.56
2023-02-22T03:55:13.218Z,95666.69
2023-02-22T03:58:00.604Z,95659.56
2023-02-22T04:00:53.124Z,95651.09
2023-02-22T04:03:40.389Z,95655.09
2023-02-22T04:06:27.499Z,95666.03
2023-02-22T04:09:14.912Z,95656.91
2023-02-22T04:12:00.727Z,95646.25
2023-02-22T04:14:47.770Z,95636.97
2023-02-22T04:17:34.005Z,95650.41
2023-02-22T04:20:25.627Z,95637.59
2023-02-22T04:23:17.047Z,95645.25
2023-02-22T04:26:03.620Z,95648.75
2023-02-22T04:28:50.262Z,95650.41
2023-02-22T04:31:38.255Z,95646.91
2023-02-22T04:34:25.095Z,95646.75
2023-02-22T04:37:12.374Z,95640.09
2023-02-22T04:39:58.263Z,95624.13
2023-02-22T04:42:44.179Z,95641.25
2023-02-22T04:45:30.745Z,95643.38
2023-02-22T04:48:16.711Z,95645.56
2023-02-22T04:51:02.680Z,95649.53
2023-02-22T04:53:51.153Z,95649.88
2023-02-22T04:56:37.467Z,95646.38
2023-02-22T04:59:24.787Z,95650.88
2023-02-22T05:02:18.928Z,95651.53
2023-02-22T05:05:05.663Z,95647.81
2023-02-22T05:07:51.453Z,95656.50
2023-02-22T05:10:37.416Z,95652.00
2023-02-22T05:13:23.302Z,95650.94
2023-02-22T05:16:09.065Z,95652.78
2023-02-22T05:18:54.725Z,95649.63
2023-02-22T05:21:40.455Z,95653.59
2023-02-22T05:24:26.188Z,95640.25
2023-02-22T05:27:12.220Z,95651.75
2023-02-22T05:29:57.925Z,95663.69
2023-02-22T05:32:46.107Z,95660.38
2023-02-22T05:35:32.778Z,95657.84
2023-02-22T05:38:18.440Z,95660.97
2023-02-22T05:41:04.466Z,95668.47
2023-02-22T05:43:50.733Z,95668.13
2023-02-22T05:46:36.800Z,95672.44
2023-02-22T05:49:23.211Z,95673.44
2023-02-22T05:52:08.996Z,95686.72
2023-02-22T05:54:54.952Z,95668.91
2023-02-22T05:57:41.290Z,95682.38
2023-02-22T06:00:30.139Z,95688.91
2023-02-22T06:03:16.151Z,95695.50
2023-02-22T06:06:02.337Z,95697.34
2023-02-22T06:08:48.172Z,95693.22
2023-02-22T06:11:34.542Z,95697.03
2023-02-22T06:14:20.335Z,95683.22
2023-02-22T06:17:06.661Z,95698.06
2023-02-22T06:19:52.983Z,95705.88
2023-02-22T06:22:41.275Z,95707.38
2023-02-22T06:25:31.326Z,95708.56
2023-02-22T06:28:17.170Z,95711.22
2023-02-22T06:31:03.313Z,95713.94
2023-02-22T06:33:48.953Z,95715.47
2023-02-22T06:36:34.790Z,95713.84
2023-02-22T06:39:20.747Z,95710.53
2023-02-22T06:42:06.582Z,95708.91
2023-02-22T06:44:52.251Z,95714.06
2023-02-22T06:47:40.319Z,95704.78
2023-02-22T06:50:32.011Z,95711.66
2023-02-22T06:53:18.732Z,95717.31
2023-02-22T06:56:05.055Z,95719.00
2023-02-22T06:58:51.165Z,95715.88
2023-02-22T07:01:37.020Z,95713.41
2023-02-22T07:04:22.777Z,95705.09
2023-02-22T07:07:08.503Z,95713.63
2023-02-22T07:09:54.338Z,95699.50
2023-02-22T07:12:40.160Z,95708.34
2023-02-22T07:15:27.949Z,95690.06
2023-02-22T07:18:14.194Z,95680.56
2023-02-22T07:21:00.117Z,95687.09
2023-02-22T07:23:56.314Z,95699.91
2023-02-22T07:26:42.998Z,95695.41
2023-02-22T07:29:28.834Z,95701.41
2023-02-22T07:32:14.657Z,95694.41
2023-02-22T07:35:02.930Z,95681.28
2023-02-22T07:37:48.834Z,95687.59
2023-02-22T07:40:35.518Z,95694.25
2023-02-22T07:43:24.015Z,95685.06
2023-02-22T07:46:11.578Z,95685.25
2023-02-22T07:48:57.301Z,95678.91
2023-02-22T07:51:43.246Z,95677.56
2023-02-22T07:54:28.933Z,95676.66
2023-02-22T07:57:15.678Z,95673.50
2023-02-22T08:00:02.025Z,95672.81
2023-02-22T08:02:48.079Z,95667.28
2023-02-22T08:05:34.869Z,95676.41
2023-02-22T08:08:20.959Z,95670.03
2023-02-22T08:11:07.107Z,95660.00
2023-02-22T08:13:53.063Z,95671.72
2023-02-22T08:16:38.730Z,95668.16
2023-02-22T08:19:24.692Z,95645.63
2023-02-22T08:22:10.522Z,95662.31
2023-02-22T08:24:56.327Z,95657.06
2023-02-22T08:27:43.845Z,95663.88
2023-02-22T08:30:31.411Z,95662.06
2023-02-22T08:33:19.819Z,95652.97
2023-02-22T08:36:06.181Z,95646.19
2023-02-22T08:38:52.354Z,95651.59
2023-02-22T08:41:38.178Z,95642.44
2023-02-22T08:44:24.530Z,95645.31
2023-02-22T08:47:10.407Z,95643.84
2023-02-22T08:49:56.232Z,95642.19
2023-02-22T08:52:42.138Z,95626.47
2023-02-22T08:55:32.322Z,95640.00
2023-02-22T08:58:18.306Z,95631.31
2023-02-22T09:01:04.309Z,95635.59
2023-02-22T09:03:51.458Z,95625.22
2023-02-22T09:06:37.409Z,95612.47
2023-02-22T09:09:23.555Z,95614.31
2023-02-22T09:12:10.080Z,95625.19
2023-02-22T09:14:55.726Z,95611.88
2023-02-22T09:17:41.520Z,95613.34
2023-02-22T09:20:27.792Z,95620.94
2023-02-22T09:23:14.582Z,95616.63
2023-02-22T09:26:01.042Z,95609.13
2023-02-22T09:28:46.827Z,95613.34
2023-02-22T09:31:35.812Z,95593.53
2023-02-22T09:34:29.596Z,95604.81
2023-02-22T09:37:15.483Z,95597.25
2023-02-22T09:40:01.482Z,95598.75
2023-02-22T09:42:57.049Z,95584.69
2023-02-22T09:45:49.060Z,95593.25
2023-02-22T09:48:36.699Z,95586.06
2023-02-22T09:51:26.676Z,95595.59
2023-02-22T09:54:27.238Z,95591.47
2023-02-22T09:57:16.417Z,95586.13
2023-02-22T10:00:13.734Z,95576.63
2023-02-22T10:03:23.007Z,95575.38
2023-02-22T10:06:15.017Z,95567.72
2023-02-22T10:09:08.206Z,95578.47
2023-02-22T10:11:58.585Z,95567.91
2023-02-22T10:14:55.525Z,95575.31
2023-02-22T10:17:48.153Z,95570.28
2023-02-22T10:20:52.215Z,95563.25
2023-02-22T10:24:04.564Z,95549.50
2023-02-22T10:26:51.269Z,95546.31
2023-02-22T10:29:47.187Z,95543.97
2023-02-22T10:32:43.382Z,95529.38
2023-02-22T10:35:33.743Z,95526.19
2023-02-22T10:38:28.321Z,95522.22
2023-02-22T10:41:24.363Z,95513.94
2023-02-22T10:44:10.522Z,95507.53
2023-02-22T10:46:56.639Z,95502.25
2023-02-22T10:49:55.712Z,95505.38
2023-02-22T10:52:41.870Z,95497.97
2023-02-22T10:55:27.821Z,95485.13
2023-02-22T10:58:14.041Z,95490.00
2023-02-22T11:01:00.203Z,95489.25
2023-02-22T11:03:46.158Z,95464.38
2023-02-22T11:06:33.917Z,95447.28
2023-02-22T11:09:24.603Z,95467.38
2023-02-22T11:12:15.646Z,95468.50
2023-02-22T11:15:24.348Z,95464.88
2023-02-22T11:18:23.240Z,95457.16
2023-02-22T11:21:11.707Z,95454.59
2023-02-22T11:24:09.587Z,95454.59
2023-02-22T11:26:58.995Z,95443.72
2023-02-22T11:29:50.893Z,95438.59
2023-02-22T11:32:43.510Z,95434.28
2023-02-22T11:35:29.313Z,95432.28
2023-02-22T11:38:29.763Z,95426.06
2023-02-22T11:41:19.353Z,95431.28
2023-02-22T11:44:29.764Z,95425.28
2023-02-22T11:47:15.848Z,95425.19
2023-02-22T11:50:02.379Z,95422.84
2023-02-22T11:52:52.826Z,95416.50
2023-02-22T11:55:45.068Z,95422.28
2023-02-22T11:58:48.614Z,95412.84
2023-02-22T12:01:37.639Z,95408.50
2023-02-22T12:04:44.811Z,95406.03
2023-02-22T12:07:52.311Z,95397.03
2023-02-22T12:11:10.222Z,95378.44
2023-02-22T12:13:56.291Z,95385.41
2023-02-22T12:16:45.073Z,95370.22
2023-02-22T12:19:36.205Z,95370.34
2023-02-22T12:22:28.052Z,95367.88
2023-02-22T12:25:26.993Z,95372.09
2023-02-22T12:28:24.937Z,95364.81
2023-02-22T12:31:19.376Z,95372.78
2023-02-22T12:34:41.407Z,95354.25
2023-02-22T12:37:35.225Z,95347.25
2023-02-22T12:40:31.140Z,95336.06
2023-02-22T12:43:34.215Z,95342.84
2023-02-22T12:46:21.853Z,95343.06
2023-02-22T12:49:20.870Z,95331.56
2023-02-22T12:52:35.349Z,95327.72
2023-02-22T12:55:25.548Z,95331.56
2023-02-22T12:58:31.467Z,95332.13
2023-02-22T13:01:20.419Z,95306.69
2023-02-22T13:04:20.180Z,95317.34
2023-02-22T13:07:48.450Z,95317.53
2023-02-22T13:10:53.411Z,95312.03
2023-02-22T13:14:16.458Z,95318.59
2023-02-22T13:17:27.422Z,95316.41
2023-02-22T13:20:43.775Z,95278.22
2023-02-22T13:23:46.236Z,95307.56
2023-02-22T13:26:43.951Z,95314.97
2023-02-22T13:29:35.334Z,95308.44
2023-02-22T13:32:25.105Z,95311.94
2023-02-22T13:35:20.539Z,95304.50
2023-02-22T13:38:35.742Z,95294.16
2023-02-22T13:41:45.139Z,95297.84
2023-02-22T13:44:46.262Z,95297.41
2023-02-22T13:47:57.977Z,95297.63
2023-02-22T13:50:48.838Z,95296.72
2023-02-22T13:53:56.077Z,95279.59
2023-02-22T13:56:47.145Z,95292.97
2023-02-22T13:59:37.206Z,95283.94
2023-02-22T14:02:57.834Z,95290.84
2023-02-22T14:05:46.798Z,95265.69
2023-02-22T14:08:33.792Z,95275.88
2023-02-22T14:11:19.769Z,95281.59
2023-02-22T14:14:05.615Z,95278.88
2023-02-22T14:17:21.991Z,95280.00
2023-02-22T14:20:19.589Z,95277.78
2023-02-22T14:23:23.747Z,95272.63
2023-02-22T14:26:14.238Z,95273.72
2023-02-22T14:29:09.110Z,95281.63
2023-02-22T14:32:07.395Z,95288.72
2023-02-22T14:34:55.083Z,95281.56
2023-02-22T14:37:41.560Z,95275.53
2023-02-22T14:40:32.048Z,95267.03
2023-02-22T14:43:22.817Z,95282.78
2023-02-22T14:46:13.375Z,95275.38
2023-02-22T14:49:04.335Z,95276.38
2023-02-22T14:52:00.044Z,95276.25
2023-02-22T14:55:13.779Z,95271.28
2023-02-22T14:58:06.145Z,95270.97
2023-02-22T15:00:53.865Z,95267.84
2023-02-22T15:03:39.654Z,95279.22
2023-02-22T15:06:28.735Z,95261.31
2023-02-22T15:09:29.225Z,95279.47
2023-02-22T15:12:30.028Z,95268.91
2023-02-22T15:15:22.114Z,95260.56
2023-02-22T15:18:22.171Z,95262.28
2023-02-22T15:21:13.492Z,95261.34
2023-02-22T15:24:02.077Z,95261.41
2023-02-22T15:27:00.854Z,95271.06
2023-02-22T15:29:47.510Z,95253.44
2023-02-22T15:32:53.394Z,95270.41
2023-02-22T15:35:44.301Z,95264.31
2023-02-22T15:38:30.975Z,95259.88
2023-02-22T15:41:27.991Z,95264.22
2023-02-22T15:44:23.166Z,95249.09
2023-02-22T15:47:18.070Z,95258.66
2023-02-22T15:50:25.927Z,95271.25
2023-02-22T15:53:21.021Z,95268.53
2023-02-22T15:56:20.407Z,95254.69
2023-02-22T15:59:12.885Z,95275.91
2023-02-22T16:01:59.757Z,95277.63
2023-02-22T16:04:54.542Z,95270.81
2023-02-22T16:07:50.121Z,95264.31
2023-02-22T16:10:37.056Z,95278.41
2023-02-22T16:13:32.027Z,95266.22
2023-02-22T16:16:20.965Z,95279.50
2023-02-22T16:19:32.893Z,95277.81
2023-02-22T16:22:29.710Z,95285.59
2023-02-22T16:25:18.946Z,95277.84
2023-02-22T16:28:30.849Z,95283.75
2023-02-22T16:31:17.435Z,95282.59
2023-02-22T16:34:06.154Z,95282.81
2023-02-22T16:36:52.280Z,95274.38
2023-02-22T16:39:38.979Z,95297.06
2023-02-22T16:42:25.666Z,95297.03
2023-02-22T16:45:16.437Z,95288.94
2023-02-22T16:48:21.410Z,95297.53
2023-02-22T16:51:10.725Z,95305.72
2023-02-22T16:53:56.754Z,95299.50
2023-02-22T16:56:42.660Z,95299.81
2023-02-22T16:59:29.262Z,95310.84
2023-02-22T17:02:15.603Z,95316.00
2023-02-22T17:05:01.790Z,95314.84
2023-02-22T17:07:47.859Z,95327.41
2023-02-22T17:10:34.309Z,95305.72
2023-02-22T17:13:26.652Z,95323.94
2023-02-22T17:16:16.771Z,95329.69
2023-02-22T17:19:05.106Z,95325.91
2023-02-22T17:21:51.006Z,95326.44
2023-02-22T17:24:39.272Z,95322.78
2023-02-22T17:27:25.401Z,95323.31
2023-02-22T17:30:13.996Z,95331.94
2023-02-22T17:33:03.939Z,95336.78
2023-02-22T17:35:50.081Z,95335.59
2023-02-22T17:38:36.570Z,95335.84
2023-02-22T17:41:22.639Z,95342.78
2023-02-22T17:44:08.795Z,95330.25
2023-02-22T17:46:54.716Z,95342.06
2023-02-22T17:49:40.791Z,95347.53
2023-02-22T17:52:30.236Z,95348.22
2023-02-22T17:55:17.041Z,95352.25
2023-02-22T17:58:03.100Z,95354.75
2023-02-22T18:00:50.370Z,95353.84
2023-02-22T18:03:40.217Z,95350.56
2023-02-22T18:06:30.163Z,95345.88
2023-02-22T18:09:17.839Z,95356.09
2023-02-22T18:12:04.194Z,95356.94
2023-02-22T18:14:50.158Z,95354.09
2023-02-22T18:17:36.988Z,95365.50
2023-02-22T18:20:38.311Z,95358.06
2023-02-22T18:23:27.897Z,95362.66
2023-02-22T18:26:21.593Z,95359.84
2023-02-22T18:29:07.862Z,95362.31
2023-02-22T18:31:54.036Z,95365.03
2023-02-22T18:34:40.249Z,95360.09
2023-02-22T18:37:28.350Z,95364.69
2023-02-22T18:40:14.294Z,95371.91
2023-02-22T18:43:00.420Z,95367.78
2023-02-22T18:45:46.407Z,95370.06
2023-02-22T18:48:32.914Z,95371.75
2023-02-22T18:51:18.802Z,95373.22
2023-02-22T18:54:04.722Z,95368.69
2023-02-22T18:56:50.615Z,95367.84
2023-02-22T18:59:38.116Z,95373.00
2023-02-22T19:02:25.554Z,95374.22
2023-02-22T19:05:12.758Z,95367.00
2023-02-22T19:07:59.078Z,95391.38
2023-02-22T19:10:45.283Z,95395.88
2023-02-22T19:13:32.065Z,95395.69
2023-02-22T19:16:22.877Z,95407.47
2023-02-22T19:19:09.584Z,95405.59
2023-02-22T19:21:56.479Z,95413.22
2023-02-22T19:24:45.744Z,95421.06
2023-02-22T19:27:34.048Z,95411.75
2023-02-22T19:30:20.256Z,95414.22
2023-02-22T19:33:06.437Z,95413.59
2023-02-22T19:35:52.432Z,95409.44
2023-02-22T19:38:39.344Z,95409.44
2023-02-22T19:41:25.459Z,95412.50
2023-02-22T19:44:12.385Z,95421.97
2023-02-22T19:46:58.120Z,95406.25
2023-02-22T19:49:43.957Z,95418.03
2023-02-22T19:52:29.910Z,95419.22
2023-02-22T19:55:15.943Z,95415.06
2023-02-22T19:58:02.101Z,95425.78
2023-02-22T20:00:47.959Z,95425.75
2023-02-22T20:03:35.300Z,95426.56
2023-02-22T20:06:23.138Z,95438.06
2023-02-22T20:09:12.501Z,95437.22
2023-02-22T20:11:58.733Z,95426.03
2023-02-22T20:14:46.320Z,95431.16
2023-02-22T20:17:32.664Z,95436.16
2023-02-22T20:20:18.799Z,95445.03
2023-02-22T20:23:07.601Z,95435.59
2023-02-22T20:25:55.120Z,95442.34
2023-02-22T20:28:41.363Z,95442.09
2023-02-22T20:31:29.631Z,95456.72
2023-02-22T20:34:15.620Z,95447.34
2023-02-22T20:37:02.486Z,95454.75
2023-02-22T20:39:50.763Z,95452.44
2023-02-22T20:42:36.888Z,95443.09
2023-02-22T20:45:22.979Z,95448.47
2023-02-22T20:48:09.232Z,95448.22
2023-02-22T20:50:55.214Z,95436.44
2023-02-22T20:53:42.106Z,95437.44
2023-02-22T20:56:30.167Z,95445.72
2023-02-22T20:59:17.881Z,95455.00
2023-02-22T21:02:04.252Z,95454.56
2023-02-22T21:04:50.161Z,95458.44
2023-02-22T21:07:35.978Z,95447.47
2023-02-22T21:10:21.880Z,95452.81
2023-02-22T21:13:11.243Z,95450.56
2023-02-22T21:15:57.565Z,95447.22
2023-02-22T21:18:43.532Z,95447.34
2023-02-22T21:21:30.045Z,95438.22
2023-02-22T21:24:16.005Z,95438.53
2023-02-22T21:27:02.597Z,95457.50
2023-02-22T21:29:48.626Z,95448.41
2023-02-22T21:32:35.631Z,95453.56
2023-02-22T21:35:23.137Z,95459.31
2023-02-22T21:38:14.463Z,95453.88
2023-02-22T21:41:03.322Z,95450.09
2023-02-22T21:43:53.177Z,95459.16
2023-02-22T21:46:39.439Z,95441.19
2023-02-22T21:49:25.426Z,95454.34
2023-02-22T21:52:11.272Z,95447.91
2023-02-22T21:54:57.196Z,95450.97
2023-02-22T21:57:43.076Z,95454.66
2023-02-22T22:00:29.264Z,95439.06
2023-02-22T22:03:20.506Z,95460.75
2023-02-22T22:06:13.596Z,95441.44
2023-02-22T22:09:00.189Z,95458.97
2023-02-22T22:11:50.276Z,95461.00
2023-02-22T22:14:37.484Z,95463.41
2023-02-22T22:17:23.999Z,95455.28
2023-02-22T22:20:11.692Z,95466.19
2023-02-22T22:22:57.476Z,95458.25
2023-02-22T22:25:43.781Z,95460.91
2023-02-22T22:28:31.600Z,95463.13
2023-02-22T22:31:19.670Z,95460.84
2023-02-22T22:34:06.389Z,95465.16
2023-02-22T22:36:52.785Z,95464.88
2023-02-22T22:39:38.893Z,95459.91
2023-02-22T22:42:25.047Z,95444.13
2023-02-22T22:45:11.938Z,95459.63
2023-02-22T22:47:57.703Z,95459.34
2023-02-22T22:50:46.542Z,95467.06
2023-02-22T22:53:34.163Z,95457.84
2023-02-22T22:56:29.153Z,95467.91
2023-02-22T22:59:15.578Z,95452.16
2023-02-22T23:02:04.539Z,95461.34
2023-02-22T23:04:51.718Z,95467.53
2023-02-22T23:07:37.978Z,95458.84
2023-02-22T23:10:30.096Z,95458.38
2023-02-22T23:13:16.273Z,95434.53
2023-02-22T23:16:02.201Z,95456.63
2023-02-22T23:18:47.912Z,95458.47
2023-02-22T23:21:35.930Z,95458.19
2023-02-22T23:24:22.074Z,95457.53
2023-02-22T23:27:08.161Z,95455.59
2023-02-22T23:29:54.097Z,95449.78
2023-02-22T23:32:41.345Z,95460.25
2023-02-22T23:35:27.628Z,95460.66
2023-02-22T23:38:13.560Z,95451.88
2023-02-22T23:41:03.992Z,95450.22
2023-02-22T23:43:51.776Z,95451.22
2023-02-22T23:46:41.216Z,95445.75
2023-02-22T23:49:35.874Z,95453.59
2023-02-22T23:52:24.526Z,95443.81
2023-02-22T23:55:10.473Z,95452.66
2023-02-22T23:57:59.514Z,95453.66
